createdAt,value
2023-12-23T00:00:01.068Z,97326.27
2023-12-23T00:02:29.403Z,97326.27
2023-12-23T00:04:57.187Z,97328.29
2023-12-23T00:07:25.216Z,97334.30
2023-12-23T00:09:52.917Z,97332.60
2023-12-23T00:12:21.257Z,97339.15
2023-12-23T00:14:49.153Z,97341.01
2023-12-23T00:17:17.150Z,97345.52
2023-12-23T00:19:45.170Z,97347.55
2023-12-23T00:22:13.132Z,97352.59
2023-12-23T00:24:40.828Z,97353.75
2023-12-23T00:27:08.782Z,97360.13
2023-12-23T00:29:36.514Z,97356.61
2023-12-23T00:32:05.374Z,97366.17
2023-12-23T00:34:33.252Z,97378.95
2023-12-23T00:37:01.124Z,97379.64
2023-12-23T00:39:28.995Z,97387.86
2023-12-23T00:41:56.666Z,97392.05
2023-12-23T00:44:24.501Z,97387.69
2023-12-23T00:46:52.427Z,97396.92
2023-12-23T00:49:20.219Z,97393.26
2023-12-23T00:51:50.261Z,97397.43
2023-12-23T00:54:18.595Z,97406.17
2023-12-23T00:56:46.855Z,97414.08
2023-12-23T00:59:14.730Z,97415.77
2023-12-23T01:01:45.522Z,97421.80
2023-12-23T01:04:13.293Z,97421.13
2023-12-23T01:06:41.343Z,97419.96
2023-12-23T01:09:09.088Z,97421.66
2023-12-23T01:11:36.790Z,97419.81
2023-12-23T01:14:07.426Z,97418.83
2023-12-23T01:16:35.268Z,97416.81
2023-12-23T01:19:03.145Z,97416.01
2023-12-23T01:21:30.879Z,97421.23
2023-12-23T01:23:58.655Z,97424.10
2023-12-23T01:26:26.342Z,97429.97
2023-12-23T01:28:54.910Z,97429.83
2023-12-23T01:31:22.715Z,97429.83
2023-12-23T01:33:51.005Z,97441.06
2023-12-23T01:36:18.822Z,97447.93
2023-12-23T01:38:46.597Z,97447.60
2023-12-23T01:41:16.659Z,97444.91
2023-12-23T01:43:44.936Z,97443.76
2023-12-23T01:46:13.282Z,97449.95
2023-12-23T01:48:45.666Z,97445.77
2023-12-23T01:51:14.996Z,97440.42
2023-12-23T01:53:43.516Z,97443.10
2023-12-23T01:56:11.623Z,97443.45
2023-12-23T01:58:39.492Z,97446.48
2023-12-23T02:01:07.838Z,97447.14
2023-12-23T02:03:36.113Z,97452.20
2023-12-23T02:06:04.257Z,97462.08
2023-12-23T02:08:32.150Z,97467.95
2023-12-23T02:11:07.193Z,97473.97
2023-12-23T02:13:46.988Z,97476.98
2023-12-23T02:16:16.027Z,97479.35
2023-12-23T02:18:44.748Z,97486.55
2023-12-23T02:21:12.558Z,97487.88
2023-12-23T02:23:40.777Z,97483.35
2023-12-23T02:26:11.591Z,97486.38
2023-12-23T02:28:41.022Z,97482.88
2023-12-23T02:31:13.543Z,97485.73
2023-12-23T02:33:41.299Z,97493.75
2023-12-23T02:36:09.911Z,97496.27
2023-12-23T02:38:37.597Z,97495.25
2023-12-23T02:41:06.388Z,97503.30
2023-12-23T02:43:34.205Z,97498.45
2023-12-23T02:46:01.983Z,97504.48
2023-12-23T02:48:29.797Z,97510.51
2023-12-23T02:50:57.721Z,97510.33
2023-12-23T02:53:25.695Z,97513.36
2023-12-23T02:55:53.570Z,97515.54
2023-12-23T02:58:21.303Z,97523.58
2023-12-23T03:00:49.047Z,97529.61
2023-12-23T03:03:16.819Z,97521.05
2023-12-23T03:05:44.674Z,97523.09
2023-12-23T03:08:12.529Z,97536.64
2023-12-23T03:10:40.648Z,97533.28
2023-12-23T03:13:08.438Z,97543.17
2023-12-23T03:15:36.170Z,97542.84
2023-12-23T03:18:04.317Z,97553.75
2023-12-23T03:20:32.253Z,97556.27
2023-12-23T03:23:00.221Z,97560.28
2023-12-23T03:25:28.030Z,97558.45
2023-12-23T03:27:55.970Z,97565.17
2023-12-23T03:30:23.683Z,97565.49
2023-12-23T03:32:51.648Z,97569.50
2023-12-23T03:35:19.801Z,97566.50
2023-12-23T03:37:47.849Z,97576.07
2023-12-23T03:40:15.963Z,97585.13
2023-12-23T03:42:43.825Z,97588.98
2023-12-23T03:45:11.620Z,97591.32
2023-12-23T03:47:41.325Z,97598.70
2023-12-23T03:50:11.281Z,97606.23
2023-12-23T03:52:39.329Z,97614.27
2023-12-23T03:55:08.369Z,97626.84
2023-12-23T03:57:36.055Z,97620.65
2023-12-23T04:00:05.697Z,97627.86
2023-12-23T04:02:33.511Z,97629.55
2023-12-23T04:05:01.416Z,97631.23
2023-12-23T04:07:29.229Z,97637.11
2023-12-23T04:09:56.901Z,97643.48
2023-12-23T04:12:24.606Z,97649.02
2023-12-23T04:14:52.283Z,97648.17
2023-12-23T04:17:20.168Z,97648.33
2023-12-23T04:19:50.597Z,97654.02
2023-12-23T04:22:18.359Z,97655.88
2023-12-23T04:24:46.058Z,97651.86
2023-12-23T04:27:13.971Z,97649.02
2023-12-23T04:29:42.197Z,97651.54
2023-12-23T04:32:09.918Z,97661.42
2023-12-23T04:34:40.872Z,97663.42
2023-12-23T04:37:08.716Z,97667.95
2023-12-23T04:39:36.400Z,97674.98
2023-12-23T04:42:04.697Z,97676.98
2023-12-23T04:44:32.409Z,97685.36
2023-12-23T04:47:00.206Z,97690.07
2023-12-23T04:49:28.400Z,97698.27
2023-12-23T04:51:58.253Z,97696.42
2023-12-23T04:54:25.977Z,97701.94
2023-12-23T04:56:53.825Z,97703.62
2023-12-23T04:59:21.641Z,97712.16
2023-12-23T05:01:51.221Z,97715.17
2023-12-23T05:04:18.978Z,97721.36
2023-12-23T05:06:46.871Z,97727.23
2023-12-23T05:09:15.960Z,97728.90
2023-12-23T05:11:43.633Z,97739.95
2023-12-23T05:14:11.445Z,97736.11
2023-12-23T05:16:39.572Z,97729.75
2023-12-23T05:19:07.472Z,97740.46
2023-12-23T05:21:35.668Z,97739.96
2023-12-23T05:24:03.821Z,97745.48
2023-12-23T05:26:31.588Z,97747.66
2023-12-23T05:28:59.457Z,97756.02
2023-12-23T05:31:27.850Z,97759.04
2023-12-23T05:33:57.461Z,97768.90
2023-12-23T05:36:25.433Z,97768.58
2023-12-23T05:38:53.271Z,97774.77
2023-12-23T05:41:21.044Z,97779.11
2023-12-23T05:43:48.992Z,97785.63
2023-12-23T05:46:16.917Z,97791.48
2023-12-23T05:48:44.779Z,97789.98
2023-12-23T05:51:13.320Z,97794.51
2023-12-23T05:53:41.075Z,97791.66
2023-12-23T05:56:09.654Z,97801.20
2023-12-23T05:58:37.475Z,97812.23
2023-12-23T06:01:06.508Z,97810.73
2023-12-23T06:03:34.268Z,97816.77
2023-12-23T06:06:05.311Z,97824.13
2023-12-23T06:08:35.249Z,97818.94
2023-12-23T06:11:05.797Z,97829.16
2023-12-23T06:13:34.017Z,97834.85
2023-12-23T06:16:08.558Z,97834.35
2023-12-23T06:18:36.475Z,97833.67
2023-12-23T06:21:04.348Z,97838.05
2023-12-23T06:23:32.164Z,97840.89
2023-12-23T06:26:00.030Z,97844.40
2023-12-23T06:28:27.817Z,97852.29
2023-12-23T06:30:55.593Z,97861.31
2023-12-23T06:33:23.583Z,97863.66
2023-12-23T06:35:51.758Z,97864.16
2023-12-23T06:38:19.804Z,97865.34
2023-12-23T06:40:47.876Z,97872.36
2023-12-23T06:43:44.211Z,97878.73
2023-12-23T06:46:04.143Z,97879.55
2023-12-23T06:48:34.530Z,97886.92
2023-12-23T06:51:02.938Z,97890.77
2023-12-23T06:53:30.986Z,97897.48
2023-12-23T06:55:58.769Z,97901.00
2023-12-23T06:58:30.036Z,97909.20
2023-12-23T07:00:57.877Z,97908.20
2023-12-23T07:03:25.853Z,97908.69
2023-12-23T07:05:53.981Z,97910.39
2023-12-23T07:08:24.009Z,97907.20
2023-12-23T07:10:51.934Z,97905.04
2023-12-23T07:13:20.401Z,97913.73
2023-12-23T07:15:50.680Z,97914.58
2023-12-23T07:18:18.438Z,97919.60
2023-12-23T07:20:47.714Z,97916.43
2023-12-23T07:23:15.850Z,97919.62
2023-12-23T07:25:43.740Z,97936.86
2023-12-23T07:28:11.557Z,97943.55
2023-12-23T07:30:46.079Z,97940.05
2023-12-23T07:33:14.842Z,97941.06
2023-12-23T07:35:42.842Z,97957.80
2023-12-23T07:38:11.308Z,97956.80
2023-12-23T07:40:40.593Z,97953.46
2023-12-23T07:43:08.799Z,97947.10
2023-12-23T07:45:36.690Z,97942.58
2023-12-23T07:48:05.728Z,97945.09
2023-12-23T07:50:33.584Z,97951.47
2023-12-23T07:53:01.446Z,97952.14
2023-12-23T07:55:31.619Z,97954.98
2023-12-23T07:58:00.763Z,97953.48
2023-12-23T08:00:29.150Z,97948.63
2023-12-23T08:02:57.058Z,97961.67
2023-12-23T08:05:24.964Z,97961.86
2023-12-23T08:07:52.717Z,97967.73
2023-12-23T08:10:20.479Z,97969.90
2023-12-23T08:12:48.422Z,97970.73
2023-12-23T08:15:16.339Z,97965.39
2023-12-23T08:17:45.532Z,97966.55
2023-12-23T08:20:13.775Z,97955.34
2023-12-23T08:22:42.807Z,97967.06
2023-12-23T08:25:10.701Z,97975.27
2023-12-23T08:27:39.928Z,97974.09
2023-12-23T08:30:09.149Z,97977.79
2023-12-23T08:32:37.202Z,97977.64
2023-12-23T08:35:05.311Z,97974.27
2023-12-23T08:37:33.101Z,97968.59
2023-12-23T08:40:00.809Z,97976.29
2023-12-23T08:42:28.541Z,97973.10
2023-12-23T08:44:56.229Z,97969.94
2023-12-23T08:47:24.040Z,97964.56
2023-12-23T08:49:51.931Z,97962.73
2023-12-23T08:52:20.313Z,97968.94
2023-12-23T08:54:48.458Z,97974.12
2023-12-23T08:57:16.157Z,97976.64
2023-12-23T08:59:43.839Z,97981.16
2023-12-23T09:02:11.772Z,97979.66
2023-12-23T09:04:39.464Z,97980.50
2023-12-23T09:07:09.394Z,97991.05
2023-12-23T09:09:37.107Z,97988.02
2023-12-23T09:12:06.184Z,97989.21
2023-12-23T09:14:34.589Z,97988.55
2023-12-23T09:17:02.321Z,97987.71
2023-12-23T09:19:30.081Z,97986.04
2023-12-23T09:21:57.789Z,97985.54
2023-12-23T09:24:25.527Z,97984.20
2023-12-23T09:26:53.353Z,97987.55
2023-12-23T09:29:21.549Z,97986.71
2023-12-23T09:31:49.455Z,97981.34
2023-12-23T09:34:17.539Z,97976.48
2023-12-23T09:36:45.273Z,97987.21
2023-12-23T09:39:13.665Z,97985.54
2023-12-23T09:41:43.615Z,97984.20
2023-12-23T09:44:11.847Z,97993.92
2023-12-23T09:46:39.812Z,97995.75
2023-12-23T09:49:07.865Z,97996.77
2023-12-23T09:51:36.199Z,97995.92
2023-12-23T09:54:08.678Z,97994.59
2023-12-23T09:56:37.172Z,97984.20
2023-12-23T09:59:05.145Z,97976.65
2023-12-23T10:01:33.214Z,97967.95
2023-12-23T10:04:00.948Z,97975.66
2023-12-23T10:06:29.295Z,97968.95
2023-12-23T10:09:02.542Z,97973.31
2023-12-23T10:11:31.547Z,97974.15
2023-12-23T10:13:59.293Z,97969.79
2023-12-23T10:16:29.410Z,97965.94
2023-12-23T10:18:57.689Z,97973.30
2023-12-23T10:21:25.565Z,97970.63
2023-12-23T10:23:54.171Z,97969.29
2023-12-23T10:26:22.092Z,97959.55
2023-12-23T10:28:57.307Z,97955.20
2023-12-23T10:31:33.244Z,97952.84
2023-12-23T10:34:07.419Z,97966.94
2023-12-23T10:36:37.274Z,97964.77
2023-12-23T10:39:16.521Z,97958.39
2023-12-23T10:42:05.451Z,97954.36
2023-12-23T10:44:34.995Z,97944.96
2023-12-23T10:47:05.296Z,97949.33
2023-12-23T10:49:33.323Z,97946.98
2023-12-23T10:52:02.268Z,97956.89
2023-12-23T10:54:32.303Z,97952.35
2023-12-23T10:57:02.409Z,97954.20
2023-12-23T10:59:30.222Z,97955.36
2023-12-23T11:01:59.106Z,97954.87
2023-12-23T11:04:28.844Z,97962.40
2023-12-23T11:07:00.897Z,97960.23
2023-12-23T11:09:30.640Z,97957.71
2023-12-23T11:11:59.243Z,97951.01
2023-12-23T11:14:27.219Z,97951.35
2023-12-23T11:16:59.966Z,97945.15
2023-12-23T11:19:27.883Z,97948.65
2023-12-23T11:22:42.300Z,97948.31
2023-12-23T11:25:36.822Z,97950.83
2023-12-23T11:28:11.430Z,97945.13
2023-12-23T11:30:49.301Z,97962.73
2023-12-23T11:33:19.976Z,97954.86
2023-12-23T11:35:52.720Z,97942.13
2023-12-23T11:38:27.421Z,97945.30
2023-12-23T11:40:55.924Z,97940.95
2023-12-23T11:43:24.318Z,97939.95
2023-12-23T11:45:54.076Z,97940.95
2023-12-23T11:48:23.555Z,97943.29
2023-12-23T11:50:57.454Z,97942.46
2023-12-23T11:53:25.364Z,97941.77
2023-12-23T11:55:54.066Z,97935.75
2023-12-23T11:58:21.936Z,97941.29
2023-12-23T12:00:53.482Z,97941.45
2023-12-23T12:03:26.118Z,97939.77
2023-12-23T12:06:00.857Z,97939.44
2023-12-23T12:08:29.714Z,97938.27
2023-12-23T12:11:03.318Z,97937.94
2023-12-23T12:13:32.732Z,97942.64
2023-12-23T12:16:00.616Z,97947.33
2023-12-23T12:18:30.899Z,97944.80
2023-12-23T12:20:59.207Z,97947.48
2023-12-23T12:23:27.341Z,97934.92
2023-12-23T12:25:59.079Z,97935.77
2023-12-23T12:28:27.598Z,97942.96
2023-12-23T12:31:07.994Z,97935.92
2023-12-23T12:33:37.155Z,97940.77
2023-12-23T12:36:08.410Z,97953.49
2023-12-23T12:38:36.764Z,97950.96
2023-12-23T12:41:04.712Z,97962.52
2023-12-23T12:43:35.552Z,97959.31
2023-12-23T12:46:03.918Z,97970.38
2023-12-23T12:48:31.945Z,97975.71
2023-12-23T12:51:00.098Z,97972.36
2023-12-23T12:53:31.387Z,97975.19
2023-12-23T12:56:12.919Z,97977.70
2023-12-23T12:58:41.997Z,97982.88
2023-12-23T13:01:10.531Z,97991.93
2023-12-23T13:03:38.325Z,97997.95
2023-12-23T13:06:06.850Z,98000.27
2023-12-23T13:08:34.849Z,98003.95
2023-12-23T13:11:02.980Z,98005.95
2023-12-23T13:13:31.081Z,98011.98
2023-12-23T13:15:58.985Z,98017.30
2023-12-23T13:18:27.668Z,98019.81
2023-12-23T13:20:55.598Z,98022.48
2023-12-23T13:23:23.655Z,98027.48
2023-12-23T13:25:51.498Z,98042.20
2023-12-23T13:28:19.308Z,98051.55
2023-12-23T13:30:47.175Z,98052.05
2023-12-23T13:33:14.983Z,98059.90
2023-12-23T13:35:43.577Z,98062.08
2023-12-23T13:38:11.447Z,98071.94
2023-12-23T13:40:39.167Z,98079.14
2023-12-23T13:43:07.564Z,98083.98
2023-12-23T13:45:37.885Z,98088.65
2023-12-23T13:48:06.280Z,98089.80
2023-12-23T13:50:36.576Z,98098.50
2023-12-23T13:53:08.660Z,98095.98
2023-12-23T13:55:37.045Z,98101.66
2023-12-23T13:58:11.093Z,98102.66
2023-12-23T14:00:39.326Z,98106.67
2023-12-23T14:03:07.178Z,98108.84
2023-12-23T14:05:36.593Z,98108.67
2023-12-23T14:08:06.702Z,98104.83
2023-12-23T14:10:34.551Z,98107.34
2023-12-23T14:13:02.406Z,98111.55
2023-12-23T14:15:30.091Z,98111.23
2023-12-23T14:17:57.887Z,98111.75
2023-12-23T14:20:27.993Z,98115.44
2023-12-23T14:22:55.924Z,98121.30
2023-12-23T14:25:24.469Z,98120.94
2023-12-23T14:27:55.570Z,98127.13
2023-12-23T14:30:23.358Z,98126.81
2023-12-23T14:32:51.406Z,98128.13
2023-12-23T14:35:19.961Z,98126.29
2023-12-23T14:37:50.934Z,98137.48
2023-12-23T14:40:20.021Z,98136.64
2023-12-23T14:42:50.243Z,98139.63
2023-12-23T14:45:18.503Z,98137.11
2023-12-23T14:47:47.784Z,98137.26
2023-12-23T14:50:20.906Z,98136.26
2023-12-23T14:52:49.057Z,98140.79
2023-12-23T14:55:17.519Z,98147.29
2023-12-23T14:57:45.742Z,98150.95
2023-12-23T15:00:14.295Z,98152.80
2023-12-23T15:02:42.175Z,98156.48
2023-12-23T15:05:10.170Z,98164.34
2023-12-23T15:07:41.172Z,98164.36
2023-12-23T15:10:11.008Z,98166.38
2023-12-23T15:12:41.983Z,98171.21
2023-12-23T15:15:10.769Z,98173.05
2023-12-23T15:17:38.916Z,98176.88
2023-12-23T15:20:08.143Z,98180.22
2023-12-23T15:22:36.581Z,98183.22
2023-12-23T15:25:04.940Z,98183.35
2023-12-23T15:27:32.857Z,98183.50
2023-12-23T15:30:02.969Z,98187.01
2023-12-23T15:32:31.464Z,98191.71
2023-12-23T15:34:59.254Z,98190.19
2023-12-23T15:37:28.060Z,98198.06
2023-12-23T15:39:57.976Z,98205.27
2023-12-23T15:42:25.745Z,98208.61
2023-12-23T15:44:54.006Z,98210.77
2023-12-23T15:47:21.825Z,98215.97
2023-12-23T15:49:49.633Z,98221.63
2023-12-23T15:52:17.372Z,98225.98
2023-12-23T15:54:46.442Z,98219.98
2023-12-23T15:57:14.145Z,98222.64
2023-12-23T15:59:41.845Z,98224.80
2023-12-23T16:02:11.819Z,98228.95
2023-12-23T16:04:39.751Z,98229.27
2023-12-23T16:07:09.732Z,98232.92
2023-12-23T16:09:37.636Z,98235.76
2023-12-23T16:12:06.552Z,98245.27
2023-12-23T16:14:36.575Z,98246.92
2023-12-23T16:17:04.618Z,98256.77
2023-12-23T16:19:35.890Z,98260.78
2023-12-23T16:22:07.225Z,98265.94
2023-12-23T16:24:34.992Z,98273.77
2023-12-23T16:27:02.728Z,98278.47
2023-12-23T16:29:30.640Z,98284.61
2023-12-23T16:32:00.248Z,98291.31
2023-12-23T16:34:29.880Z,98295.61
2023-12-23T16:37:00.805Z,98299.27
2023-12-23T16:39:28.729Z,98301.95
2023-12-23T16:41:56.481Z,98306.09
2023-12-23T16:44:24.235Z,98306.11
2023-12-23T16:46:52.356Z,98311.36
2023-12-23T16:49:20.188Z,98311.86
2023-12-23T16:51:50.113Z,98318.92
2023-12-23T16:54:17.861Z,98318.59
2023-12-23T16:56:45.645Z,98322.98
2023-12-23T16:59:13.439Z,98318.61
2023-12-23T17:01:43.306Z,98322.60
2023-12-23T17:04:13.334Z,98325.94
2023-12-23T17:06:42.758Z,98329.77
2023-12-23T17:09:10.604Z,98327.09
2023-12-23T17:11:40.552Z,98337.45
2023-12-23T17:14:08.493Z,98338.92
2023-12-23T17:16:36.551Z,98342.92
2023-12-23T17:19:04.964Z,98346.56
2023-12-23T17:21:33.133Z,98347.39
2023-12-23T17:24:00.890Z,98349.76
2023-12-23T17:26:28.995Z,98348.40
2023-12-23T17:28:56.821Z,98351.08
2023-12-23T17:31:24.621Z,98359.06
2023-12-23T17:33:52.350Z,98362.89
2023-12-23T17:36:20.221Z,98364.21
2023-12-23T17:38:51.155Z,98366.04
2023-12-23T17:41:19.298Z,98370.17
2023-12-23T17:43:49.538Z,98371.70
2023-12-23T17:46:17.296Z,98378.89
2023-12-23T17:48:45.107Z,98378.54
2023-12-23T17:51:12.945Z,98378.84
2023-12-23T17:53:41.614Z,98379.48
2023-12-23T17:56:11.682Z,98385.54
2023-12-23T17:58:42.742Z,98384.04
2023-12-23T18:01:11.391Z,98393.04
2023-12-23T18:03:42.388Z,98391.36
2023-12-23T18:06:11.654Z,98396.52
2023-12-23T18:08:39.495Z,98398.02
2023-12-23T18:11:07.320Z,98406.54
2023-12-23T18:13:35.223Z,98404.68
2023-12-23T18:16:03.210Z,98407.84
2023-12-23T18:18:31.248Z,98409.52
2023-12-23T18:21:01.110Z,98414.70
2023-12-23T18:23:28.857Z,98419.36
2023-12-23T18:25:59.446Z,98424.06
2023-12-23T18:28:27.275Z,98427.53
2023-12-23T18:30:55.109Z,98430.84
2023-12-23T18:33:23.519Z,98436.21
2023-12-23T18:35:51.438Z,98438.35
2023-12-23T18:38:19.224Z,98446.71
2023-12-23T18:40:49.148Z,98450.05
2023-12-23T18:43:16.868Z,98453.78
2023-12-23T18:45:44.563Z,98459.95
2023-12-23T18:48:13.327Z,98460.63
2023-12-23T18:50:41.162Z,98463.47
2023-12-23T18:53:08.886Z,98464.80
2023-12-23T18:55:38.301Z,98467.17
2023-12-23T18:58:08.481Z,98467.84
2023-12-23T19:00:37.244Z,98472.13
2023-12-23T19:03:09.095Z,98478.73
2023-12-23T19:05:39.433Z,98479.48
2023-12-23T19:08:08.488Z,98478.88
2023-12-23T19:10:36.570Z,98480.09
2023-12-23T19:13:04.493Z,98479.09
2023-12-23T19:15:32.242Z,98484.27
2023-12-23T19:18:00.141Z,98488.11
2023-12-23T19:20:28.196Z,98485.74
2023-12-23T19:22:56.429Z,98485.24
2023-12-23T19:25:24.441Z,98489.55
2023-12-23T19:27:52.569Z,98492.86
2023-12-23T19:30:20.639Z,98493.70
2023-12-23T19:32:49.665Z,98494.37
2023-12-23T19:35:19.556Z,98498.88
2023-12-23T19:37:47.451Z,98501.91
2023-12-23T19:40:15.388Z,98508.83
2023-12-23T19:42:43.121Z,98512.10
2023-12-23T19:45:13.300Z,98513.34
2023-12-23T19:47:42.187Z,98528.77
2023-12-23T19:50:10.667Z,98527.37
2023-12-23T19:52:38.742Z,98532.59
2023-12-23T19:55:06.979Z,98534.98
2023-12-23T19:57:34.739Z,98535.84
2023-12-23T20:00:06.208Z,98541.38
2023-12-23T20:02:34.051Z,98543.59
2023-12-23T20:05:05.014Z,98547.70
2023-12-23T20:07:33.207Z,98550.91
2023-12-23T20:10:00.959Z,98550.77
2023-12-23T20:12:28.765Z,98560.52
2023-12-23T20:14:58.814Z,98561.73
2023-12-23T20:17:26.748Z,98564.14
2023-12-23T20:19:54.766Z,98568.20
2023-12-23T20:22:22.633Z,98576.30
2023-12-23T20:24:50.522Z,98570.66
2023-12-23T20:27:18.215Z,98573.23
2023-12-23T20:29:46.395Z,98584.52
2023-12-23T20:32:14.319Z,98587.11
2023-12-23T20:34:42.292Z,98587.96
2023-12-23T20:37:10.367Z,98585.82
2023-12-23T20:39:38.190Z,98588.15
2023-12-23T20:42:09.247Z,98581.63
2023-12-23T20:44:36.990Z,98588.30
2023-12-23T20:47:05.055Z,98594.30
2023-12-23T20:49:33.166Z,98593.31
2023-12-23T20:52:01.076Z,98598.87
2023-12-23T20:54:28.896Z,98594.89
2023-12-23T20:56:56.667Z,98599.10
2023-12-23T20:59:24.679Z,98602.85
2023-12-23T21:01:52.690Z,98607.41
2023-12-23T21:04:20.494Z,98608.61
2023-12-23T21:06:48.706Z,98614.99
2023-12-23T21:09:16.422Z,98615.17
2023-12-23T21:11:44.249Z,98622.70
2023-12-23T21:14:12.388Z,98629.74
2023-12-23T21:16:40.150Z,98628.92
2023-12-23T21:19:10.335Z,98627.75
2023-12-23T21:21:41.269Z,98631.11
2023-12-23T21:24:09.233Z,98629.13
2023-12-23T21:26:37.075Z,98627.27
2023-12-23T21:29:04.886Z,98625.61
2023-12-23T21:31:32.623Z,98633.52
2023-12-23T21:34:00.466Z,98633.92
2023-12-23T21:36:34.771Z,98631.14
2023-12-23T21:39:02.833Z,98631.33
2023-12-23T21:41:32.742Z,98629.00
2023-12-23T21:44:01.276Z,98634.05
2023-12-23T21:46:29.263Z,98636.73
2023-12-23T21:48:58.900Z,98638.75
2023-12-23T21:51:26.831Z,98633.77
2023-12-23T21:53:55.153Z,98631.12
2023-12-23T21:56:22.983Z,98626.12
2023-12-23T21:58:51.518Z,98628.97
2023-12-23T22:01:19.287Z,98635.99
2023-12-23T22:03:47.189Z,98636.84
2023-12-23T22:06:17.265Z,98639.04
2023-12-23T22:08:46.332Z,98635.86
2023-12-23T22:11:14.900Z,98637.86
2023-12-23T22:13:43.339Z,98636.68
2023-12-23T22:16:11.090Z,98638.51
2023-12-23T22:18:39.222Z,98639.02
2023-12-23T22:21:07.160Z,98640.54
2023-12-23T22:23:34.874Z,98639.35
2023-12-23T22:26:02.587Z,98636.66
2023-12-23T22:28:30.286Z,98632.29
2023-12-23T22:30:58.001Z,98630.13
2023-12-23T22:33:25.893Z,98635.80
2023-12-23T22:35:53.654Z,98628.59
2023-12-23T22:38:21.419Z,98634.45
2023-12-23T22:40:49.089Z,98636.65
2023-12-23T22:43:19.143Z,98642.99
2023-12-23T22:45:47.297Z,98643.98
2023-12-23T22:48:15.085Z,98647.00
2023-12-23T22:50:43.391Z,98651.95
2023-12-23T22:53:11.216Z,98653.27
2023-12-23T22:55:39.546Z,98657.30
2023-12-23T22:58:08.512Z,98663.99
2023-12-23T23:00:37.705Z,98661.14
2023-12-23T23:03:05.748Z,98661.81
2023-12-23T23:05:33.686Z,98670.06
2023-12-23T23:08:03.254Z,98672.90
2023-12-23T23:10:31.073Z,98675.12
2023-12-23T23:12:58.842Z,98679.66
2023-12-23T23:15:26.597Z,98686.39
2023-12-23T23:17:54.492Z,98689.09
2023-12-23T23:20:22.464Z,98690.46
2023-12-23T23:22:50.740Z,98692.98
2023-12-23T23:25:18.657Z,98705.06
2023-12-23T23:27:46.787Z,98707.45
2023-12-23T23:30:14.881Z,98702.94
2023-12-23T23:32:42.630Z,98702.14
2023-12-23T23:35:12.182Z,98707.84
2023-12-23T23:37:41.585Z,98714.38
2023-12-23T23:40:09.871Z,98714.88
2023-12-23T23:42:38.266Z,98725.80
2023-12-23T23:45:06.733Z,98726.14
2023-12-23T23:47:34.841Z,98730.49
2023-12-23T23:50:06.041Z,98737.72
2023-12-23T23:52:36.109Z,98734.02
2023-12-23T23:55:08.259Z,98730.00
2023-12-23T23:57:36.250Z,98729.98
